createdAt,value
2023-02-03T00:00:15.714Z,7.57
2023-02-03T00:02:42.657Z,7.59
2023-02-03T00:05:10.413Z,7.43
2023-02-03T00:07:37.537Z,7.56
2023-02-03T00:10:04.254Z,7.62
2023-02-03T00:12:30.881Z,7.64
2023-02-03T00:14:57.498Z,7.65
2023-02-03T00:17:24.130Z,7.71
2023-02-03T00:19:50.698Z,7.74
2023-02-03T00:22:17.377Z,7.58
2023-02-03T00:24:44.048Z,7.82
2023-02-03T00:27:10.609Z,7.90
2023-02-03T00:29:37.193Z,7.81
2023-02-03T00:32:04.016Z,7.93
2023-02-03T00:34:30.639Z,8.05
2023-02-03T00:36:57.227Z,7.85
2023-02-03T00:39:25.054Z,8.07
2023-02-03T00:41:51.623Z,8.07
2023-02-03T00:44:18.252Z,8.05
2023-02-03T00:46:44.930Z,8.19
2023-02-03T00:49:11.483Z,8.11
2023-02-03T00:51:38.205Z,8.37
2023-02-03T00:54:04.756Z,8.30
2023-02-03T00:56:31.295Z,8.39
2023-02-03T00:58:57.863Z,8.30
2023-02-03T01:01:24.438Z,8.26
2023-02-03T01:03:51.105Z,8.29
2023-02-03T01:06:20.750Z,8.38
2023-02-03T01:08:47.638Z,8.57
2023-02-03T01:11:15.995Z,8.64
2023-02-03T01:13:44.064Z,8.71
2023-02-03T01:16:11.228Z,8.70
2023-02-03T01:18:38.071Z,8.59
2023-02-03T01:21:09.110Z,8.68
2023-02-03T01:23:36.346Z,8.83
2023-02-03T01:26:06.659Z,8.86
2023-02-03T01:28:33.216Z,8.84
2023-02-03T01:31:10.467Z,8.86
2023-02-03T01:33:37.133Z,8.85
2023-02-03T01:36:03.830Z,8.81
2023-02-03T01:38:30.386Z,8.72
2023-02-03T01:40:56.970Z,8.84
2023-02-03T01:43:33.492Z,8.94
2023-02-03T01:46:01.210Z,9.07
2023-02-03T01:48:27.781Z,9.06
2023-02-03T01:50:54.386Z,9.05
2023-02-03T01:53:21.109Z,9.02
2023-02-03T01:55:48.455Z,9.20
2023-02-03T01:58:18.749Z,9.26
2023-02-03T02:00:45.317Z,9.18
2023-02-03T02:03:11.967Z,9.05
2023-02-03T02:06:00.340Z,9.20
2023-02-03T02:08:26.878Z,9.24
2023-02-03T02:10:53.472Z,9.19
2023-02-03T02:13:20.033Z,9.21
2023-02-03T02:16:29.594Z,9.13
2023-02-03T02:19:15.778Z,9.29
2023-02-03T02:22:00.948Z,9.34
2023-02-03T02:25:08.771Z,9.13
2023-02-03T02:27:50.122Z,9.29
2023-02-03T02:30:55.620Z,9.32
2023-02-03T02:33:27.832Z,9.39
2023-02-03T02:36:24.289Z,9.32
2023-02-03T02:38:59.326Z,9.42
2023-02-03T02:41:35.909Z,9.41
2023-02-03T02:44:13.025Z,9.33
2023-02-03T02:46:42.347Z,9.34
2023-02-03T02:49:13.307Z,9.40
2023-02-03T02:51:39.859Z,9.26
2023-02-03T02:54:08.151Z,9.41
2023-02-03T02:56:34.886Z,9.36
2023-02-03T02:59:02.247Z,9.45
2023-02-03T03:01:28.840Z,9.52
2023-02-03T03:03:55.504Z,9.54
2023-02-03T03:06:27.770Z,9.45
2023-02-03T03:09:06.016Z,9.33
2023-02-03T03:11:33.913Z,9.25
2023-02-03T03:14:00.477Z,9.38
2023-02-03T03:16:27.598Z,9.34
2023-02-03T03:19:02.731Z,9.28
2023-02-03T03:21:32.681Z,9.37
2023-02-03T03:23:59.822Z,9.33
2023-02-03T03:26:39.729Z,9.39
2023-02-03T03:29:16.410Z,9.34
2023-02-03T03:31:43.010Z,9.18
2023-02-03T03:34:09.799Z,9.07
2023-02-03T03:36:44.148Z,9.33
2023-02-03T03:39:15.337Z,9.35
2023-02-03T03:41:50.122Z,9.35
2023-02-03T03:44:16.664Z,9.29
2023-02-03T03:46:51.339Z,9.37
2023-02-03T03:49:17.990Z,9.34
2023-02-03T03:51:47.865Z,9.18
2023-02-03T03:54:19.229Z,9.18
2023-02-03T03:57:02.311Z,9.28
2023-02-03T03:59:30.747Z,9.36
2023-02-03T04:01:57.904Z,9.40
2023-02-03T04:04:24.605Z,9.36
2023-02-03T04:06:53.406Z,9.17
2023-02-03T04:09:19.980Z,9.33
2023-02-03T04:11:46.556Z,9.33
2023-02-03T04:14:13.307Z,9.09
2023-02-03T04:16:39.925Z,9.00
2023-02-03T04:19:08.453Z,8.88
2023-02-03T04:21:35.200Z,8.90
2023-02-03T04:24:01.779Z,8.94
2023-02-03T04:26:28.555Z,8.87
2023-02-03T04:28:55.099Z,8.98
2023-02-03T04:31:21.728Z,9.05
2023-02-03T04:33:48.453Z,8.91
2023-02-03T04:36:15.072Z,8.81
2023-02-03T04:38:41.689Z,8.67
2023-02-03T04:41:08.463Z,8.64
2023-02-03T04:43:35.035Z,8.81
2023-02-03T04:46:01.655Z,8.67
2023-02-03T04:48:28.254Z,8.43
2023-02-03T04:50:54.851Z,8.49
2023-02-03T04:53:21.438Z,8.63
2023-02-03T04:55:48.195Z,8.52
2023-02-03T04:58:14.784Z,8.52
2023-02-03T05:00:41.337Z,8.30
2023-02-03T05:03:07.953Z,8.28
2023-02-03T05:05:34.521Z,8.26
2023-02-03T05:08:01.107Z,8.27
2023-02-03T05:10:27.816Z,8.13
2023-02-03T05:12:54.517Z,8.15
2023-02-03T05:15:21.150Z,8.03
2023-02-03T05:17:47.704Z,8.00
2023-02-03T05:20:14.261Z,7.96
2023-02-03T05:22:40.805Z,7.85
2023-02-03T05:25:07.858Z,7.74
2023-02-03T05:27:34.441Z,7.73
2023-02-03T05:30:01.020Z,7.74
2023-02-03T05:32:27.566Z,7.70
2023-02-03T05:34:54.131Z,7.66
2023-02-03T05:37:20.677Z,7.65
2023-02-03T05:39:47.226Z,7.60
2023-02-03T05:42:13.766Z,7.52
2023-02-03T05:44:40.314Z,7.52
2023-02-03T05:47:06.867Z,7.43
2023-02-03T05:49:33.415Z,7.45
2023-02-03T05:51:59.988Z,7.40
2023-02-03T05:54:26.538Z,7.35
2023-02-03T05:56:53.113Z,7.29
2023-02-03T05:59:19.712Z,7.21
2023-02-03T06:01:46.256Z,7.19
2023-02-03T06:04:12.852Z,7.18
2023-02-03T06:06:39.469Z,7.15
2023-02-03T06:09:07.113Z,7.12
2023-02-03T06:11:33.778Z,7.13
2023-02-03T06:14:00.333Z,7.03
2023-02-03T06:16:27.193Z,7.06
2023-02-03T06:18:54.060Z,6.95
2023-02-03T06:21:21.069Z,7.03
2023-02-03T06:23:47.646Z,6.98
2023-02-03T06:26:14.216Z,6.96
2023-02-03T06:28:40.812Z,6.91
2023-02-03T06:31:07.444Z,6.89
2023-02-03T06:33:34.098Z,6.97
2023-02-03T06:36:00.677Z,6.84
2023-02-03T06:38:27.225Z,6.77
2023-02-03T06:40:53.889Z,6.80
2023-02-03T06:43:20.474Z,6.94
2023-02-03T06:45:47.034Z,6.96
2023-02-03T06:48:13.845Z,6.94
2023-02-03T06:50:40.708Z,6.97
2023-02-03T06:53:07.321Z,6.92
2023-02-03T06:55:33.875Z,6.91
2023-02-03T06:58:00.635Z,6.88
2023-02-03T07:00:27.445Z,6.89
2023-02-03T07:02:55.200Z,6.90
2023-02-03T07:05:22.297Z,6.87
2023-02-03T07:07:48.836Z,6.64
2023-02-03T07:10:15.497Z,6.74
2023-02-03T07:12:42.118Z,6.68
2023-02-03T07:15:09.205Z,6.68
2023-02-03T07:17:35.751Z,6.86
2023-02-03T07:20:02.382Z,6.65
2023-02-03T07:22:28.993Z,6.65
2023-02-03T07:24:55.727Z,6.66
2023-02-03T07:27:23.350Z,6.74
2023-02-03T07:29:49.888Z,6.82
2023-02-03T07:32:16.426Z,6.79
2023-02-03T07:34:42.957Z,6.69
2023-02-03T07:37:09.517Z,6.78
2023-02-03T07:39:36.066Z,6.71
2023-02-03T07:42:02.627Z,6.77
2023-02-03T07:44:29.193Z,6.74
2023-02-03T07:46:55.795Z,6.79
2023-02-03T07:49:22.383Z,6.84
2023-02-03T07:51:48.942Z,6.91
2023-02-03T07:54:15.487Z,6.98
2023-02-03T07:56:42.802Z,6.96
2023-02-03T07:59:09.371Z,7.03
2023-02-03T08:01:35.911Z,7.12
2023-02-03T08:04:02.524Z,7.04
2023-02-03T08:06:29.074Z,6.97
2023-02-03T08:08:55.666Z,7.10
2023-02-03T08:11:22.199Z,7.16
2023-02-03T08:13:48.755Z,7.16
2023-02-03T08:16:15.338Z,7.19
2023-02-03T08:18:41.941Z,7.12
2023-02-03T08:21:08.502Z,7.28
2023-02-03T08:23:35.069Z,7.29
2023-02-03T08:26:01.628Z,7.21
2023-02-03T08:28:28.234Z,7.42
2023-02-03T08:30:54.854Z,7.55
2023-02-03T08:33:21.513Z,7.56
2023-02-03T08:35:49.110Z,7.68
2023-02-03T08:38:15.890Z,7.76
2023-02-03T08:40:42.541Z,7.90
2023-02-03T08:43:09.151Z,7.97
2023-02-03T08:45:35.824Z,7.90
2023-02-03T08:48:02.484Z,8.10
2023-02-03T08:50:29.398Z,8.20
2023-02-03T08:52:56.237Z,8.27
2023-02-03T08:55:22.875Z,8.35
2023-02-03T08:57:49.522Z,8.37
2023-02-03T09:00:16.492Z,8.41
2023-02-03T09:02:43.145Z,8.33
2023-02-03T09:05:10.006Z,8.30
2023-02-03T09:07:36.698Z,8.49
2023-02-03T09:10:03.635Z,8.53
2023-02-03T09:12:30.332Z,8.61
2023-02-03T09:14:56.924Z,8.68
2023-02-03T09:17:23.595Z,8.79
2023-02-03T09:19:50.282Z,8.84
2023-02-03T09:22:18.781Z,8.79
2023-02-03T09:24:45.483Z,8.72
2023-02-03T09:27:12.121Z,8.90
2023-02-03T09:29:38.761Z,8.81
2023-02-03T09:32:05.498Z,9.06
2023-02-03T09:34:32.104Z,9.07
2023-02-03T09:36:58.746Z,9.14
2023-02-03T09:39:25.399Z,9.16
2023-02-03T09:42:00.136Z,9.30
2023-02-03T09:44:27.465Z,9.29
2023-02-03T09:46:59.278Z,9.40
2023-02-03T09:49:29.295Z,9.37
2023-02-03T09:51:57.820Z,9.56
2023-02-03T09:54:43.062Z,9.64
2023-02-03T09:57:15.736Z,9.72
2023-02-03T09:59:42.410Z,9.78
2023-02-03T10:02:33.620Z,9.83
2023-02-03T10:05:20.390Z,9.93
2023-02-03T10:08:48.869Z,10.05
2023-02-03T10:11:50.215Z,10.11
2023-02-03T10:15:00.931Z,10.24
2023-02-03T10:17:37.978Z,10.31
2023-02-03T10:20:18.403Z,10.38
2023-02-03T10:23:11.991Z,10.55
2023-02-03T10:25:41.482Z,10.65
2023-02-03T10:28:16.771Z,10.83
2023-02-03T10:30:46.215Z,10.87
2023-02-03T10:33:17.516Z,10.92
2023-02-03T10:35:55.761Z,10.95
2023-02-03T10:38:58.203Z,11.01
2023-02-03T10:41:24.949Z,11.05
2023-02-03T10:43:52.113Z,11.07
2023-02-03T10:46:27.790Z,11.12
2023-02-03T10:48:54.541Z,11.21
2023-02-03T10:51:23.456Z,11.30
2023-02-03T10:53:50.303Z,11.39
2023-02-03T10:56:17.076Z,11.40
2023-02-03T10:59:05.909Z,11.38
2023-02-03T11:01:39.994Z,11.45
2023-02-03T11:04:07.715Z,11.33
2023-02-03T11:06:34.396Z,11.48
2023-02-03T11:09:01.021Z,11.53
2023-02-03T11:11:31.726Z,11.52
2023-02-03T11:14:04.494Z,11.59
2023-02-03T11:16:32.874Z,11.70
2023-02-03T11:19:03.398Z,11.70
2023-02-03T11:21:39.148Z,11.80
2023-02-03T11:24:24.161Z,11.64
2023-02-03T11:27:19.968Z,11.66
2023-02-03T11:29:47.718Z,11.75
2023-02-03T11:32:27.808Z,11.71
2023-02-03T11:34:57.248Z,11.69
2023-02-03T11:37:33.404Z,11.74
2023-02-03T11:40:08.959Z,11.79
2023-02-03T11:42:36.332Z,11.87
2023-02-03T11:45:18.075Z,11.87
2023-02-03T11:47:46.806Z,11.94
2023-02-03T11:50:31.102Z,11.96
2023-02-03T11:53:10.326Z,12.01
2023-02-03T11:55:46.073Z,12.04
2023-02-03T11:58:17.391Z,11.97
2023-02-03T12:00:56.166Z,11.83
2023-02-03T12:03:44.276Z,11.93
2023-02-03T12:06:51.962Z,11.83
2023-02-03T12:09:34.269Z,11.87
2023-02-03T12:12:20.706Z,11.91
2023-02-03T12:14:49.546Z,11.98
2023-02-03T12:17:26.215Z,12.08
2023-02-03T12:20:19.075Z,12.13
2023-02-03T12:22:57.371Z,12.13
2023-02-03T12:25:59.051Z,12.20
2023-02-03T12:28:33.585Z,12.25
2023-02-03T12:31:23.632Z,12.23
2023-02-03T12:33:52.725Z,12.24
2023-02-03T12:36:22.648Z,12.21
2023-02-03T12:39:24.336Z,12.20
2023-02-03T12:42:18.151Z,12.23
2023-02-03T12:44:48.839Z,12.28
2023-02-03T12:47:26.500Z,12.31
2023-02-03T12:50:44.087Z,12.28
2023-02-03T12:53:14.595Z,12.31
2023-02-03T12:55:46.398Z,12.22
2023-02-03T12:58:58.566Z,12.12
2023-02-03T13:01:43.244Z,12.10
2023-02-03T13:04:09.771Z,12.13
2023-02-03T13:06:55.067Z,12.01
2023-02-03T13:09:28.957Z,12.16
2023-02-03T13:12:03.620Z,12.24
2023-02-03T13:14:36.647Z,12.20
2023-02-03T13:17:28.355Z,12.24
2023-02-03T13:20:00.323Z,12.25
2023-02-03T13:22:27.050Z,12.37
2023-02-03T13:25:05.084Z,12.42
2023-02-03T13:27:52.628Z,12.54
2023-02-03T13:30:50.372Z,12.65
2023-02-03T13:33:44.615Z,12.67
2023-02-03T13:36:16.978Z,12.63
2023-02-03T13:38:52.325Z,12.69
2023-02-03T13:41:26.977Z,12.69
2023-02-03T13:43:53.654Z,12.82
2023-02-03T13:46:28.552Z,12.76
2023-02-03T13:48:56.118Z,12.66
2023-02-03T13:51:24.398Z,12.73
2023-02-03T13:53:51.362Z,12.68
2023-02-03T13:56:24.567Z,12.65
2023-02-03T13:59:04.463Z,12.66
2023-02-03T14:01:38.254Z,12.68
2023-02-03T14:04:08.659Z,12.73
2023-02-03T14:06:38.294Z,12.84
2023-02-03T14:09:20.700Z,12.87
2023-02-03T14:11:51.970Z,12.91
2023-02-03T14:14:18.501Z,12.81
2023-02-03T14:16:52.668Z,12.79
2023-02-03T14:19:30.143Z,12.80
2023-02-03T14:22:01.783Z,12.78
2023-02-03T14:24:32.120Z,12.70
2023-02-03T14:26:58.848Z,12.70
2023-02-03T14:29:32.492Z,12.69
2023-02-03T14:32:12.078Z,12.72
2023-02-03T14:34:43.115Z,12.72
2023-02-03T14:37:15.707Z,12.65
2023-02-03T14:40:08.423Z,12.66
2023-02-03T14:43:11.973Z,12.58
2023-02-03T14:46:14.826Z,12.62
2023-02-03T14:49:12.122Z,12.56
2023-02-03T14:52:03.042Z,12.51
2023-02-03T14:54:54.137Z,12.59
2023-02-03T14:57:48.163Z,12.52
2023-02-03T15:00:20.789Z,12.55
2023-02-03T15:03:09.131Z,12.54
2023-02-03T15:05:39.536Z,12.56
2023-02-03T15:08:38.970Z,12.53
2023-02-03T15:11:28.591Z,12.50
2023-02-03T15:13:56.708Z,12.44
2023-02-03T15:16:24.475Z,12.37
2023-02-03T15:19:03.429Z,12.40
2023-02-03T15:21:30.091Z,12.44
2023-02-03T15:23:56.687Z,12.46
2023-02-03T15:26:24.763Z,12.37
2023-02-03T15:28:58.011Z,12.34
2023-02-03T15:31:33.428Z,12.35
2023-02-03T15:34:04.014Z,12.37
2023-02-03T15:36:45.417Z,12.33
2023-02-03T15:39:17.903Z,12.29
2023-02-03T15:41:44.497Z,12.26
2023-02-03T15:44:34.981Z,12.16
2023-02-03T15:47:02.458Z,12.14
2023-02-03T15:49:39.070Z,12.04
2023-02-03T15:52:32.062Z,12.02
2023-02-03T15:55:06.199Z,11.96
2023-02-03T15:57:33.116Z,11.82
2023-02-03T16:00:12.585Z,11.70
2023-02-03T16:02:41.959Z,11.67
2023-02-03T16:05:22.540Z,11.60
2023-02-03T16:07:49.187Z,11.61
2023-02-03T16:10:26.012Z,11.46
2023-02-03T16:12:52.687Z,11.42
2023-02-03T16:15:23.644Z,11.42
2023-02-03T16:17:55.109Z,11.29
2023-02-03T16:20:26.046Z,11.20
2023-02-03T16:23:18.089Z,11.25
2023-02-03T16:25:44.743Z,11.18
2023-02-03T16:28:16.542Z,11.24
2023-02-03T16:31:14.657Z,11.23
2023-02-03T16:33:52.635Z,11.27
2023-02-03T16:36:19.251Z,11.25
2023-02-03T16:38:46.797Z,11.17
2023-02-03T16:41:16.345Z,11.09
2023-02-03T16:43:42.996Z,11.04
2023-02-03T16:46:11.199Z,11.06
2023-02-03T16:48:37.818Z,10.90
2023-02-03T16:51:07.044Z,10.90
2023-02-03T16:53:33.765Z,10.87
2023-02-03T16:56:01.515Z,10.82
2023-02-03T16:58:28.120Z,10.66
2023-02-03T17:00:55.385Z,10.68
2023-02-03T17:03:24.097Z,10.60
2023-02-03T17:05:51.014Z,10.47
2023-02-03T17:08:19.578Z,10.46
2023-02-03T17:10:46.213Z,10.43
2023-02-03T17:13:12.798Z,10.33
2023-02-03T17:15:42.499Z,10.23
2023-02-03T17:18:09.158Z,10.13
2023-02-03T17:20:35.821Z,10.07
2023-02-03T17:23:02.614Z,10.07
2023-02-03T17:25:29.678Z,10.10
2023-02-03T17:27:56.559Z,10.01
2023-02-03T17:30:23.241Z,9.91
2023-02-03T17:32:49.853Z,9.91
2023-02-03T17:35:16.506Z,9.87
2023-02-03T17:37:43.102Z,9.94
2023-02-03T17:53:56.911Z,9.86
2023-02-03T17:56:24.361Z,9.85
2023-02-03T17:58:57.911Z,9.83
2023-02-03T18:01:24.606Z,9.84
2023-02-03T18:03:52.581Z,9.85
2023-02-03T18:06:20.144Z,9.84
2023-02-03T18:08:47.061Z,9.82
2023-02-03T18:11:13.793Z,9.75
2023-02-03T18:13:41.707Z,9.46
2023-02-03T18:16:10.165Z,9.62
2023-02-03T18:18:36.802Z,9.73
2023-02-03T18:21:06.549Z,9.75
2023-02-03T18:23:33.444Z,9.77
2023-02-03T18:26:00.093Z,9.72
2023-02-03T18:28:26.719Z,9.65
2023-02-03T18:31:03.139Z,9.68
2023-02-03T18:33:29.830Z,9.71
2023-02-03T18:36:00.096Z,9.67
2023-02-03T18:38:26.876Z,9.67
2023-02-03T18:40:53.532Z,9.65
2023-02-03T18:43:20.637Z,9.67
2023-02-03T18:45:47.282Z,9.71
2023-02-03T18:48:13.891Z,9.66
2023-02-03T18:50:41.475Z,9.45
2023-02-03T18:53:08.134Z,9.59
2023-02-03T18:55:34.767Z,9.50
2023-02-03T18:58:01.465Z,9.50
2023-02-03T19:00:28.386Z,9.43
2023-02-03T19:02:55.282Z,9.37
2023-02-03T19:05:21.949Z,9.38
2023-02-03T19:07:48.559Z,9.20
2023-02-03T19:10:15.185Z,9.24
2023-02-03T19:12:41.848Z,9.41
2023-02-03T19:15:10.386Z,9.53
2023-02-03T19:17:37.244Z,9.59
2023-02-03T19:20:04.779Z,9.62
2023-02-03T19:22:31.881Z,9.66
2023-02-03T19:24:58.600Z,9.75
2023-02-03T19:27:25.298Z,9.72
2023-02-03T19:29:51.978Z,9.73
2023-02-03T19:32:18.616Z,9.79
2023-02-03T19:34:45.240Z,9.83
2023-02-03T19:37:11.886Z,9.85
2023-02-03T19:39:38.539Z,9.95
2023-02-03T19:42:05.253Z,10.05
2023-02-03T19:44:31.889Z,10.04
2023-02-03T19:46:58.480Z,10.11
2023-02-03T19:49:25.105Z,10.12
2023-02-03T19:51:51.698Z,10.14
2023-02-03T19:54:18.326Z,10.16
2023-02-03T19:56:44.973Z,10.01
2023-02-03T19:59:11.593Z,9.98
2023-02-03T20:01:38.321Z,9.84
2023-02-03T20:04:05.061Z,9.99
2023-02-03T20:06:31.692Z,9.86
2023-02-03T20:08:58.332Z,9.74
2023-02-03T20:11:25.022Z,9.89
2023-02-03T20:13:51.774Z,9.91
2023-02-03T20:16:18.689Z,9.76
2023-02-03T20:18:45.540Z,9.78
2023-02-03T20:21:12.229Z,9.76
2023-02-03T20:23:38.865Z,9.65
2023-02-03T20:26:05.940Z,9.48
2023-02-03T20:28:32.563Z,9.47
2023-02-03T20:31:00.013Z,9.40
2023-02-03T20:33:27.878Z,9.47
2023-02-03T20:35:54.736Z,9.35
2023-02-03T20:38:21.334Z,9.42
2023-02-03T20:40:47.963Z,9.45
2023-02-03T20:43:22.178Z,9.56
2023-02-03T20:45:49.056Z,9.53
2023-02-03T20:48:16.599Z,9.47
2023-02-03T20:50:43.898Z,9.49
2023-02-03T20:53:13.065Z,9.42
2023-02-03T20:55:42.453Z,9.54
2023-02-03T20:58:28.858Z,9.49
2023-02-03T21:00:55.503Z,9.47
2023-02-03T21:03:22.152Z,9.48
2023-02-03T21:05:48.804Z,9.37
2023-02-03T21:08:19.671Z,9.31
2023-02-03T21:13:45.852Z,9.32
2023-02-03T21:16:25.443Z,9.24
2023-02-03T21:18:56.129Z,9.18
2023-02-03T21:21:39.317Z,9.14
2023-02-03T21:24:25.944Z,9.13
2023-02-03T21:26:53.157Z,9.14
2023-02-03T21:29:31.692Z,9.12
2023-02-03T21:31:58.352Z,8.94
2023-02-03T21:34:31.846Z,8.85
2023-02-03T21:37:14.068Z,8.80
2023-02-03T21:39:40.726Z,8.86
2023-02-03T21:42:28.324Z,8.92
2023-02-03T21:44:56.400Z,8.88
2023-02-03T21:47:22.988Z,8.91
2023-02-03T21:49:49.620Z,8.94
2023-02-03T21:52:16.330Z,8.85
2023-02-03T21:54:43.057Z,8.70
2023-02-03T21:57:15.236Z,8.73
2023-02-03T21:59:41.975Z,8.76
2023-02-03T22:02:46.136Z,8.68
2023-02-03T22:05:16.905Z,8.58
2023-02-03T22:07:43.694Z,8.60
2023-02-03T22:10:10.319Z,8.58
2023-02-03T22:12:36.933Z,8.65
2023-02-03T22:15:03.951Z,8.59
2023-02-03T22:17:30.539Z,8.46
2023-02-03T22:19:57.174Z,8.44
2023-02-03T22:22:24.165Z,8.21
2023-02-03T22:24:50.780Z,8.39
2023-02-03T22:27:17.389Z,8.38
2023-02-03T22:29:44.018Z,8.38
2023-02-03T22:32:10.656Z,8.36
2023-02-03T22:34:37.254Z,8.54
2023-02-03T22:37:03.891Z,8.58
2023-02-03T22:39:30.689Z,8.60
2023-02-03T22:41:57.357Z,8.43
2023-02-03T22:44:24.013Z,8.41
2023-02-03T22:46:50.626Z,8.54
2023-02-03T22:49:17.284Z,8.57
2023-02-03T22:51:43.916Z,8.47
2023-02-03T22:54:10.549Z,8.49
2023-02-03T22:56:37.153Z,8.53
2023-02-03T22:59:03.841Z,8.52
2023-02-03T23:01:31.289Z,8.36
2023-02-03T23:03:57.979Z,8.28
2023-02-03T23:06:25.607Z,8.19
2023-02-03T23:08:52.194Z,8.36
2023-02-03T23:11:18.827Z,8.13
2023-02-03T23:13:45.572Z,8.33
2023-02-03T23:16:12.247Z,8.36
2023-02-03T23:18:38.869Z,8.30
2023-02-03T23:21:05.643Z,8.13
2023-02-03T23:23:32.279Z,8.27
2023-02-03T23:25:58.968Z,8.28
2023-02-03T23:28:25.686Z,8.42
2023-02-03T23:30:52.406Z,8.40
2023-02-03T23:33:19.052Z,8.34
2023-02-03T23:35:45.808Z,8.43
2023-02-03T23:38:15.633Z,8.30
2023-02-03T23:40:42.866Z,8.36
2023-02-03T23:43:09.606Z,8.44
2023-02-03T23:45:36.262Z,8.30
2023-02-03T23:48:02.892Z,8.36
2023-02-03T23:50:29.908Z,8.43
2023-02-03T23:52:56.731Z,8.41
2023-02-03T23:55:23.550Z,8.45
2023-02-03T23:57:50.368Z,8.41
